aviador You're here:

PAOO Decoded Metar

TOKSOOK BAY in AK, USA
Report Time2017-06-29 11:56:00
UTC Time2017-06-29 12:24:18
Flight Rules mvfr MVFR
Wind130° at 13 kt
W.Decomp.*RWY 16: 9.7 kt HW 8.7 kt LCW
W.Rank130° ranks 17
Current wind is below 130° avg. (13.7)
Visibility9999 m
Phenomena:N/A
Clouds:Overcast 024 Hf
Expected CloudBase > 400 ft AGL from Temp-Dew spread
Ceiling2,400 ft
Temp09°C (ISA -6)
Dew Point08°C (94% RH)
AAT3.9°C
QNH1006 hPa
Density Alt-262 ft
Elevation59 ft
Report Wrong Elevation
Raw Report
PAOO 291156Z AUTO 13013KT 10SM OVC024 09/08 A2971 RMK AO2 RAB10E23
SLP070 P0000 60001 70007 T00940078 10100 20089 50001=

Extra information for PAOO:More info

Metar Taf Metar & Taf Last 4 Metars F.Rules Stats Wind Profile Meteogram Temp Stats Airport Information Weather charts Add Link Nearby VenuesMetar ALERT Operation Metar Decoded Social comments

AIRNAV info for PAOO